Time;durP1;ratioP1;P1;durP2;ratioP2;P2;SDS_P1;SDS_P2;PMS_P1;PMS_P2;Temp;Humidity;BMP_temperature;BMP_pressure;BME280_temperature;BME280_humidity;BME280_pressure;Samples;Min_cycle;Max_cycle;Signal;HPM_P1;HPM_P2
2023/07/09 00:02:20;;;;;;;11.43;7.13;;;24.80;78.80;;;;;;5058765;28;20104;-81
2023/07/09 00:04:46;;;;;;;11.38;7.40;;;24.80;79.00;;;;;;5035613;28;20030;-80
2023/07/09 00:07:21;;;;;;;16.05;7.70;;;24.70;79.30;;;;;;5016123;28;20535;-87
2023/07/09 00:09:46;;;;;;;11.73;7.03;;;24.70;79.40;;;;;;5037458;28;20047;-88
2023/07/09 00:12:17;;;;;;;11.77;7.22;;;24.60;79.50;;;;;;5038603;28;20477;-87
2023/07/09 00:14:43;;;;;;;10.85;6.40;;;24.60;79.70;;;;;;5040146;28;20033;-87
2023/07/09 00:17:27;;;;;;;12.55;7.80;;;24.50;79.50;;;;;;5038964;28;20029;-87
2023/07/09 00:19:52;;;;;;;9.93;6.50;;;24.50;79.60;;;;;;5038976;28;20017;-87
2023/07/09 00:22:19;;;;;;;12.80;8.35;;;24.40;80.20;;;;;;5037763;28;20409;-87
2023/07/09 00:24:50;;;;;;;15.75;7.97;;;24.50;80.00;;;;;;5039663;28;20026;-87
2023/07/09 00:27:18;;;;;;;16.05;8.20;;;24.40;80.30;;;;;;5037506;28;20030;-87
2023/07/09 00:29:44;;;;;;;14.23;8.02;;;24.40;80.40;;;;;;5038789;28;20029;-87
2023/07/09 00:32:15;;;;;;;12.90;7.50;;;24.40;80.50;;;;;;5021157;28;20112;-87
2023/07/09 00:34:48;;;;;;;13.23;8.00;;;24.30;80.70;;;;;;5038455;28;20031;-87
2023/07/09 00:37:16;;;;;;;12.02;7.43;;;24.30;81.00;;;;;;5023074;28;20057;-87
2023/07/09 00:39:41;;;;;;;12.95;7.72;;;24.30;81.30;;;;;;5037279;28;20428;-87
2023/07/09 00:42:17;;;;;;;13.60;7.60;;;24.20;81.40;;;;;;5029933;28;20028;-87
2023/07/09 00:44:47;;;;;;;10.68;7.07;;;24.20;81.70;;;;;;5054796;28;20029;-87
2023/07/09 00:47:23;;;;;;;14.27;8.05;;;24.20;81.80;;;;;;5053916;28;20385;-81
2023/07/09 00:49:57;;;;;;;10.63;7.20;;;24.10;81.90;;;;;;5033397;28;20028;-80
2023/07/09 00:52:33;;;;;;;12.38;7.07;;;24.10;81.80;;;;;;5032441;28;20116;-80
2023/07/09 00:55:04;;;;;;;10.60;7.18;;;24.10;81.70;;;;;;5035569;28;20543;-80
2023/07/09 00:57:30;;;;;;;10.82;7.45;;;24.10;81.90;;;;;;5035709;28;20053;-80
2023/07/09 01:00:09;;;;;;;12.50;8.05;;;24.00;82.00;;;;;;5045686;28;20029;-80
2023/07/09 01:02:35;;;;;;;10.85;6.68;;;24.00;82.10;;;;;;5055409;28;20025;-80
2023/07/09 01:05:02;;;;;;;11.38;7.57;;;24.00;82.20;;;;;;5038687;28;20028;-80
2023/07/09 01:07:29;;;;;;;13.48;7.03;;;24.00;82.30;;;;;;5055250;28;20021;-80
2023/07/09 01:09:55;;;;;;;12.80;7.50;;;23.90;82.50;;;;;;5055218;28;20032;-80
2023/07/09 01:12:22;;;;;;;12.65;7.57;;;23.90;82.80;;;;;;5056408;28;20017;-80
2023/07/09 01:14:53;;;;;;;13.50;7.75;;;23.90;83.10;;;;;;5039042;28;20095;-80
2023/07/09 01:17:20;;;;;;;13.63;8.18;;;23.80;83.30;;;;;;5055314;28;20029;-80
2023/07/09 01:19:50;;;;;;;11.45;7.53;;;23.90;83.40;;;;;;5053441;28;20033;-80
2023/07/09 01:22:18;;;;;;;14.30;7.88;;;23.80;83.60;;;;;;5055423;28;20017;-80
2023/07/09 01:25:01;;;;;;;11.32;7.78;;;23.80;83.80;;;;;;5054962;28;20071;-80
2023/07/09 01:27:34;;;;;;;10.63;7.25;;;23.80;84.00;;;;;;5056195;28;20017;-80
2023/07/09 01:30:03;;;;;;;10.97;7.50;;;23.70;84.10;;;;;;5044497;28;20051;-80
2023/07/09 01:32:28;;;;;;;13.32;7.07;;;23.70;84.30;;;;;;5051091;28;20330;-80
2023/07/09 01:35:00;;;;;;;12.88;8.05;;;23.70;84.60;;;;;;5038144;28;20083;-80
2023/07/09 01:37:27;;;;;;;12.63;7.78;;;23.70;84.90;;;;;;5054893;28;20033;-80
2023/07/09 01:39:54;;;;;;;9.55;6.85;;;23.70;85.30;;;;;;5054717;28;20540;-80
2023/07/09 01:42:23;;;;;;;10.10;7.28;;;23.60;85.50;;;;;;5055890;28;20056;-80
2023/07/09 01:44:50;;;;;;;13.02;7.60;;;23.60;85.80;;;;;;5055514;28;20092;-80
2023/07/09 01:47:16;;;;;;;13.43;8.43;;;23.50;86.00;;;;;;5054610;28;20205;-80
2023/07/09 01:49:46;;;;;;;14.30;8.07;;;23.50;86.30;;;;;;5054522;28;20025;-80
2023/07/09 01:52:13;;;;;;;13.68;8.43;;;23.50;87.20;;;;;;5038240;28;20025;-80
2023/07/09 01:54:39;;;;;;;12.07;7.70;;;23.40;86.80;;;;;;5037776;28;20029;-80
2023/07/09 01:57:22;;;;;;;10.88;7.30;;;23.40;86.80;;;;;;5037540;28;20037;-81
2023/07/09 01:59:54;;;;;;;12.07;7.60;;;23.30;86.90;;;;;;5054429;28;20029;-80
2023/07/09 02:02:22;;;;;;;12.35;8.30;;;23.30;86.90;;;;;;5054324;28;20021;-80
2023/07/09 02:04:49;;;;;;;13.70;8.45;;;23.30;87.80;;;;;;5040058;28;20021;-80
2023/07/09 02:07:16;;;;;;;13.20;8.30;;;23.30;87.30;;;;;;5034295;28;20033;-80
2023/07/09 02:09:42;;;;;;;13.13;7.85;;;23.30;87.70;;;;;;5017848;28;20390;-80
2023/07/09 02:12:08;;;;;;;10.52;7.72;;;23.20;88.10;;;;;;5004597;28;20031;-80
2023/07/09 02:14:34;;;;;;;13.57;8.27;;;23.10;88.50;;;;;;5029297;28;20033;-80
2023/07/09 02:17:00;;;;;;;12.00;7.82;;;23.10;88.60;;;;;;5017421;28;20482;-81
2023/07/09 02:19:25;;;;;;;13.15;8.63;;;23.10;88.60;;;;;;5001308;28;20022;-81
2023/07/09 02:21:51;;;;;;;12.63;7.85;;;23.00;88.30;;;;;;5001262;28;20022;-81
2023/07/09 02:24:16;;;;;;;13.13;7.70;;;23.00;88.40;;;;;;5034101;28;20335;-79
2023/07/09 02:26:42;;;;;;;12.10;8.07;;;23.00;88.40;;;;;;5017559;28;20034;-80
2023/07/09 02:29:08;;;;;;;12.60;7.60;;;22.90;88.30;;;;;;5017298;28;20538;-80
2023/07/09 02:31:33;;;;;;;11.40;7.43;;;22.90;88.10;;;;;;5033911;28;20029;-80
2023/07/09 02:34:00;;;;;;;13.50;8.32;;;22.90;88.10;;;;;;5017200;28;20026;-80
2023/07/09 02:36:26;;;;;;;11.57;7.75;;;22.90;88.00;;;;;;5017479;28;20049;-80
2023/07/09 02:38:51;;;;;;;13.50;7.95;;;22.90;88.00;;;;;;5033766;28;20068;-80
2023/07/09 02:41:17;;;;;;;12.85;8.20;;;22.90;88.00;;;;;;5017363;28;20072;-80
2023/07/09 02:43:43;;;;;;;11.55;7.40;;;22.90;88.20;;;;;;5017074;28;20025;-80
2023/07/09 02:46:08;;;;;;;11.68;6.93;;;22.90;88.40;;;;;;5016909;28;20041;-80
2023/07/09 02:48:34;;;;;;;12.48;7.28;;;22.90;88.70;;;;;;5017032;28;20111;-80
2023/07/09 02:50:59;;;;;;;11.02;7.22;;;22.80;89.00;;;;;;5000543;28;20184;-80
2023/07/09 02:53:27;;;;;;;11.68;7.68;;;22.80;89.20;;;;;;5000717;28;20088;-80
2023/07/09 02:55:53;;;;;;;12.80;7.40;;;22.80;89.40;;;;;;5049966;28;20024;-80
2023/07/09 02:58:18;;;;;;;10.32;7.32;;;22.80;89.80;;;;;;5021846;28;20060;-80
2023/07/09 03:00:51;;;;;;;13.05;7.82;;;22.80;90.00;;;;;;5000414;28;20160;-80
2023/07/09 03:03:17;;;;;;;14.00;7.80;;;22.80;90.10;;;;;;5033173;28;20014;-80
2023/07/09 03:05:45;;;;;;;13.38;7.85;;;22.70;90.20;;;;;;5016579;28;20099;-80
2023/07/09 03:08:11;;;;;;;13.20;8.18;;;22.70;90.30;;;;;;5034242;28;20386;-80
2023/07/09 03:10:36;;;;;;;13.38;8.43;;;22.70;90.40;;;;;;5034280;28;20060;-80
2023/07/09 03:13:02;;;;;;;12.77;7.82;;;22.70;90.50;;;;;;5000219;28;20052;-80
2023/07/09 03:15:27;;;;;;;11.38;7.72;;;22.70;90.60;;;;;;5032688;28;20037;-80
2023/07/09 03:17:53;;;;;;;10.50;7.07;;;22.70;90.80;;;;;;5045507;28;20060;-80
2023/07/09 03:20:18;;;;;;;15.13;8.27;;;22.70;90.90;;;;;;5036201;28;20033;-80
2023/07/09 03:22:44;;;;;;;12.75;7.20;;;22.70;91.00;;;;;;5052943;28;20551;-80
2023/07/09 03:25:10;;;;;;;12.77;7.63;;;22.70;91.00;;;;;;5052703;28;20029;-80
2023/07/09 03:27:35;;;;;;;11.68;7.88;;;22.70;91.10;;;;;;5052776;28;20485;-79
2023/07/09 03:30:01;;;;;;;11.93;6.97;;;22.70;91.00;;;;;;5052611;28;20481;-80
2023/07/09 03:32:27;;;;;;;12.57;7.00;;;22.60;91.00;;;;;;5053526;28;20112;-80
2023/07/09 03:34:53;;;;;;;12.20;7.72;;;22.60;90.90;;;;;;5035831;28;20025;-80
2023/07/09 03:37:19;;;;;;;11.18;7.22;;;22.60;90.90;;;;;;5035100;28;20024;-80
2023/07/09 03:39:47;;;;;;;12.80;7.72;;;22.60;90.90;;;;;;5052465;28;20028;-80
2023/07/09 03:42:13;;;;;;;12.23;8.13;;;22.60;90.90;;;;;;5052958;28;20094;-80
2023/07/09 03:44:40;;;;;;;13.20;7.90;;;22.60;90.90;;;;;;5035943;28;20544;-80
2023/07/09 03:47:06;;;;;;;13.93;7.78;;;22.60;91.20;;;;;;5047636;28;20033;-80
2023/07/09 03:49:32;;;;;;;14.80;8.43;;;22.60;90.80;;;;;;5016480;28;20041;-80
2023/07/09 03:51:58;;;;;;;12.60;7.28;;;22.60;90.80;;;;;;5015959;28;20031;-80
2023/07/09 03:54:23;;;;;;;11.95;8.30;;;22.60;90.80;;;;;;5016096;28;20032;-80
2023/07/09 03:56:49;;;;;;;17.20;7.45;;;22.50;90.80;;;;;;4999291;28;20025;-80
2023/07/09 03:59:15;;;;;;;11.55;7.20;;;22.50;90.70;;;;;;4999488;28;20512;-80
2023/07/09 04:01:45;;;;;;;13.13;7.65;;;22.50;90.70;;;;;;5040370;28;20033;-80
2023/07/09 04:04:12;;;;;;;12.85;6.93;;;22.50;90.80;;;;;;5032168;28;20029;-80
2023/07/09 04:06:38;;;;;;;12.68;7.43;;;22.50;90.80;;;;;;5033910;28;20060;-80
2023/07/09 04:09:04;;;;;;;16.33;7.90;;;22.50;90.80;;;;;;5044028;28;20441;-80
2023/07/09 04:11:29;;;;;;;12.60;7.18;;;22.50;90.80;;;;;;5049303;28;20496;-80
2023/07/09 04:13:55;;;;;;;13.05;8.32;;;22.50;90.90;;;;;;5014662;28;20033;-80
2023/07/09 04:16:21;;;;;;;16.70;7.85;;;22.50;90.90;;;;;;5033662;28;20116;-80
2023/07/09 04:18:46;;;;;;;11.68;7.38;;;22.50;90.90;;;;;;5026660;28;20029;-80
2023/07/09 04:21:12;;;;;;;13.20;7.50;;;22.50;91.00;;;;;;5027603;28;20022;-80
2023/07/09 04:23:38;;;;;;;11.93;7.68;;;22.50;91.00;;;;;;5032209;28;20033;-80
2023/07/09 04:26:04;;;;;;;11.68;8.05;;;22.60;91.10;;;;;;5033600;28;20092;-80
2023/07/09 04:28:30;;;;;;;12.38;7.45;;;22.50;91.50;;;;;;5003443;28;20061;-80
2023/07/09 04:30:56;;;;;;;10.07;6.97;;;22.60;91.30;;;;;;5019723;28;20022;-80
2023/07/09 04:33:22;;;;;;;12.63;7.95;;;22.50;91.40;;;;;;5003447;28;20034;-80
2023/07/09 04:35:49;;;;;;;11.77;7.60;;;22.50;91.60;;;;;;5037477;28;20470;-80
2023/07/09 04:38:15;;;;;;;14.77;8.27;;;22.60;91.70;;;;;;5045335;28;20473;-80
2023/07/09 04:40:41;;;;;;;13.75;7.57;;;22.60;91.90;;;;;;5039225;28;20025;-80
2023/07/09 04:43:07;;;;;;;11.77;8.10;;;22.60;92.00;;;;;;5055693;28;20377;-80
2023/07/09 04:45:32;;;;;;;12.07;7.53;;;22.60;92.10;;;;;;5055781;28;20043;-80
2023/07/09 04:47:58;;;;;;;12.38;7.82;;;22.60;92.20;;;;;;5039222;28;20033;-80
2023/07/09 04:50:24;;;;;;;12.80;7.95;;;22.60;92.30;;;;;;5056797;28;20024;-80
2023/07/09 04:52:49;;;;;;;13.38;8.40;;;22.70;92.40;;;;;;5038957;28;20528;-80
2023/07/09 04:55:18;;;;;;;12.05;8.65;;;22.70;92.50;;;;;;5038945;28;20143;-80
2023/07/09 04:57:44;;;;;;;14.48;9.30;;;22.70;92.60;;;;;;5039672;28;20107;-80
2023/07/09 05:00:11;;;;;;;13.85;8.85;;;22.70;93.00;;;;;;5035772;28;20029;-80
2023/07/09 05:02:36;;;;;;;13.77;10.10;;;22.70;92.80;;;;;;5035557;28;20091;-80
2023/07/09 05:05:02;;;;;;;13.80;8.68;;;22.80;92.90;;;;;;5035462;28;20022;-80
2023/07/09 05:07:28;;;;;;;17.13;9.95;;;22.80;93.00;;;;;;5035553;28;20033;-80
2023/07/09 05:09:54;;;;;;;14.98;9.77;;;22.80;93.00;;;;;;5035095;28;20057;-80
2023/07/09 05:12:20;;;;;;;15.75;10.35;;;22.80;93.10;;;;;;5018842;28;20037;-80
2023/07/09 05:14:46;;;;;;;14.43;9.93;;;22.80;93.20;;;;;;5036428;28;20024;-80
2023/07/09 05:17:12;;;;;;;14.02;8.27;;;22.90;93.20;;;;;;5035477;28;20116;-80
2023/07/09 05:19:38;;;;;;;12.25;8.63;;;22.90;93.20;;;;;;5018609;28;20064;-80
2023/07/09 05:22:04;;;;;;;12.60;8.77;;;22.90;93.50;;;;;;5002298;28;20140;-80
2023/07/09 05:24:29;;;;;;;13.05;9.88;;;23.00;93.30;;;;;;5002229;28;20496;-80
2023/07/09 05:26:55;;;;;;;13.63;9.73;;;23.00;93.20;;;;;;5035512;28;20083;-80
2023/07/09 05:29:21;;;;;;;14.50;10.00;;;23.10;93.50;;;;;;5034913;28;20061;-80
2023/07/09 05:31:47;;;;;;;12.95;10.05;;;23.10;93.10;;;;;;5018453;28;20037;-80
2023/07/09 05:34:12;;;;;;;16.83;10.43;;;23.10;93.10;;;;;;5018441;28;20034;-80
2023/07/09 05:36:39;;;;;;;14.05;10.38;;;23.10;93.00;;;;;;5034929;28;20034;-80
2023/07/09 05:39:04;;;;;;;16.70;10.38;;;23.20;93.00;;;;;;5033432;28;20389;-80
2023/07/09 05:41:30;;;;;;;14.32;9.75;;;23.30;93.00;;;;;;5034737;28;20022;-80
2023/07/09 05:43:56;;;;;;;15.05;10.20;;;23.30;93.00;;;;;;5020835;28;20026;-80
2023/07/09 05:46:23;;;;;;;14.77;10.07;;;23.30;92.90;;;;;;5054258;28;20033;-80
2023/07/09 05:48:48;;;;;;;16.88;10.07;;;23.30;92.80;;;;;;5038169;28;20031;-81
2023/07/09 05:51:14;;;;;;;16.00;10.02;;;23.40;92.80;;;;;;5054317;28;20033;-81
2023/07/09 05:53:40;;;;;;;14.25;10.02;;;23.40;92.70;;;;;;5035246;28;20032;-80
2023/07/09 05:56:06;;;;;;;18.30;10.48;;;23.50;92.60;;;;;;5050790;28;20029;-80
2023/07/09 05:58:31;;;;;;;14.25;9.68;;;23.50;92.50;;;;;;5047077;28;20409;-80
2023/07/09 06:00:57;;;;;;;17.08;10.43;;;23.60;92.40;;;;;;5055279;28;20032;-80
2023/07/09 06:03:26;;;;;;;14.63;9.77;;;23.60;92.40;;;;;;5037669;28;20021;-79
2023/07/09 06:05:52;;;;;;;14.75;10.40;;;23.60;92.30;;;;;;5055521;28;20055;-81
2023/07/09 06:08:20;;;;;;;15.88;10.80;;;23.70;92.30;;;;;;5037603;28;20064;-81
2023/07/09 06:10:56;;;;;;;15.65;9.95;;;23.70;92.20;;;;;;5054253;28;20156;-80
2023/07/09 06:13:23;;;;;;;14.55;9.90;;;23.80;92.10;;;;;;5054171;28;20064;-81
2023/07/09 06:15:50;;;;;;;14.32;10.73;;;23.80;92.00;;;;;;5037592;28;20036;-80
2023/07/09 06:18:15;;;;;;;17.33;10.15;;;23.90;91.90;;;;;;5037344;28;20029;-81
2023/07/09 06:20:47;;;;;;;15.98;9.82;;;23.90;91.70;;;;;;5037409;28;20051;-81
2023/07/09 06:23:12;;;;;;;15.23;10.25;;;24.00;91.60;;;;;;5053913;28;20029;-80
2023/07/09 06:25:38;;;;;;;14.05;9.05;;;24.00;91.50;;;;;;5053960;28;20535;-80
2023/07/09 06:28:04;;;;;;;16.67;10.13;;;24.00;91.40;;;;;;5037501;28;20029;-80
2023/07/09 06:30:29;;;;;;;14.13;9.30;;;24.10;91.20;;;;;;5053738;28;20312;-81
2023/07/09 06:32:55;;;;;;;16.10;9.77;;;24.10;91.00;;;;;;5037405;28;20078;-80
2023/07/09 06:35:21;;;;;;;13.27;9.20;;;24.10;90.80;;;;;;5037034;28;20491;-80
2023/07/09 06:37:46;;;;;;;13.50;10.15;;;24.20;90.70;;;;;;5036874;28;20033;-80
2023/07/09 06:40:12;;;;;;;14.25;9.60;;;24.30;90.60;;;;;;5036934;28;20025;-81
2023/07/09 06:42:38;;;;;;;14.55;9.95;;;24.30;90.50;;;;;;5042539;28;20055;-81
2023/07/09 06:45:04;;;;;;;15.07;9.73;;;24.40;90.30;;;;;;5017087;28;20025;-80
2023/07/09 06:47:30;;;;;;;14.00;9.35;;;24.50;90.20;;;;;;5028867;28;20060;-79
2023/07/09 06:49:56;;;;;;;13.48;8.85;;;24.50;90.10;;;;;;5053136;28;20366;-80
2023/07/09 06:52:21;;;;;;;12.98;9.50;;;24.50;90.00;;;;;;5036720;28;20148;-79
2023/07/09 06:54:49;;;;;;;13.32;8.98;;;24.60;90.00;;;;;;5053548;28;20028;-80
2023/07/09 06:57:14;;;;;;;13.00;8.77;;;24.60;89.80;;;;;;5037543;28;20048;-79
2023/07/09 06:59:40;;;;;;;13.77;8.68;;;24.70;89.70;;;;;;5021936;28;20131;-79
2023/07/09 07:02:06;;;;;;;15.43;8.95;;;24.70;89.50;;;;;;5036111;28;20036;-79
2023/07/09 07:04:32;;;;;;;14.60;8.77;;;24.80;89.90;;;;;;5036492;28;20025;-80
2023/07/09 07:06:58;;;;;;;15.65;8.57;;;24.80;89.00;;;;;;5036423;28;20025;-79
2023/07/09 07:09:23;;;;;;;14.40;9.20;;;24.90;88.80;;;;;;5036423;28;20128;-80
2023/07/09 07:11:50;;;;;;;16.23;8.55;;;25.00;89.30;;;;;;5035491;28;20029;-79
2023/07/09 07:14:16;;;;;;;12.82;8.23;;;25.00;88.40;;;;;;5047257;28;20021;-79
2023/07/09 07:16:41;;;;;;;13.23;8.65;;;25.10;88.20;;;;;;5054311;28;20454;-79
2023/07/09 07:19:07;;;;;;;13.93;8.55;;;25.20;88.00;;;;;;5020004;28;20116;-79
2023/07/09 07:21:33;;;;;;;16.20;9.02;;;25.20;87.80;;;;;;5036175;28;20070;-79
2023/07/09 07:23:58;;;;;;;14.07;8.43;;;25.30;87.60;;;;;;5036164;28;20366;-80
2023/07/09 07:26:24;;;;;;;12.20;8.05;;;25.40;87.40;;;;;;5054499;28;20397;-79
2023/07/09 07:28:50;;;;;;;12.70;7.82;;;25.40;87.10;;;;;;5033026;28;20034;-85
2023/07/09 07:31:16;;;;;;;13.23;8.15;;;25.50;87.00;;;;;;5048565;28;20375;-86
2023/07/09 07:33:42;;;;;;;12.68;7.20;;;25.60;87.00;;;;;;5031412;28;20540;-87
2023/07/09 07:36:09;;;;;;;10.82;7.20;;;25.60;86.60;;;;;;5015414;28;20069;-86
2023/07/09 07:38:35;;;;;;;12.63;7.78;;;25.70;86.30;;;;;;5032380;28;20033;-86
2023/07/09 07:41:01;;;;;;;12.43;7.78;;;25.80;86.10;;;;;;5040189;28;20036;-85
2023/07/09 07:43:27;;;;;;;13.27;8.55;;;25.80;86.40;;;;;;5043799;28;20018;-86
2023/07/09 07:45:52;;;;;;;14.73;7.75;;;25.90;85.60;;;;;;5050751;28;20100;-86
2023/07/09 07:48:18;;;;;;;15.98;8.55;;;26.00;85.50;;;;;;5038666;28;20028;-86
2023/07/09 07:50:45;;;;;;;11.23;7.35;;;26.10;85.50;;;;;;5053932;28;20032;-86
2023/07/09 07:53:11;;;;;;;13.30;7.82;;;26.20;85.60;;;;;;5052954;28;20021;-86
2023/07/09 07:55:37;;;;;;;12.63;7.97;;;26.20;85.50;;;;;;5037235;28;20449;-86
2023/07/09 07:58:03;;;;;;;16.02;7.07;;;26.30;85.40;;;;;;5029559;28;20053;-85
2023/07/09 08:00:30;;;;;;;10.57;7.32;;;26.40;85.30;;;;;;5028247;28;20024;-85
2023/07/09 08:02:55;;;;;;;13.32;7.63;;;26.50;85.00;;;;;;5029043;28;20376;-87
2023/07/09 08:05:23;;;;;;;11.30;6.97;;;26.60;84.50;;;;;;5030122;28;20109;-87
2023/07/09 08:07:49;;;;;;;9.48;6.45;;;26.70;84.00;;;;;;5049285;28;20503;-88
2023/07/09 08:10:16;;;;;;;17.52;7.72;;;26.70;83.50;;;;;;5057925;28;20452;-87
2023/07/09 08:12:41;;;;;;;11.82;6.60;;;26.80;83.20;;;;;;5054071;28;20021;-88
2023/07/09 08:15:07;;;;;;;10.82;6.82;;;26.90;82.70;;;;;;5052727;28;20040;-88
2023/07/09 08:17:33;;;;;;;10.40;6.85;;;26.90;82.10;;;;;;5054491;28;20029;-89
2023/07/09 08:19:59;;;;;;;15.38;7.25;;;27.10;81.80;;;;;;5053244;28;20056;-87
2023/07/09 08:22:24;;;;;;;10.18;6.93;;;27.20;82.10;;;;;;5032353;28;20405;-85
2023/07/09 08:24:51;;;;;;;11.15;6.35;;;27.20;80.70;;;;;;5024026;28;20021;-84
2023/07/09 08:27:17;;;;;;;12.02;7.28;;;27.30;80.20;;;;;;5042500;28;20460;-84
2023/07/09 08:29:42;;;;;;;11.90;6.70;;;27.40;79.60;;;;;;5042250;28;20396;-84
2023/07/09 08:32:09;;;;;;;10.20;6.18;;;27.50;79.00;;;;;;5041152;28;20025;-84
2023/07/09 08:34:35;;;;;;;10.82;6.80;;;27.60;78.80;;;;;;5037016;28;20048;-86
2023/07/09 08:37:02;;;;;;;10.68;6.40;;;27.60;78.50;;;;;;5018057;28;20034;-84
2023/07/09 08:39:28;;;;;;;10.43;5.97;;;27.70;78.00;;;;;;5032650;28;20052;-85
2023/07/09 08:42:01;;;;;;;10.50;6.55;;;27.80;77.50;;;;;;5043585;28;20025;-84
2023/07/09 08:44:33;;;;;;;13.48;7.30;;;27.90;77.10;;;;;;5051332;28;20013;-84
2023/07/09 08:47:01;;;;;;;10.77;6.05;;;28.00;76.90;;;;;;5042877;28;20033;-84
2023/07/09 08:49:37;;;;;;;11.07;6.22;;;28.10;76.60;;;;;;5044009;28;20377;-83
2023/07/09 08:52:09;;;;;;;13.45;6.22;;;28.20;76.50;;;;;;5044544;28;20029;-84
2023/07/09 08:54:36;;;;;;;10.75;6.45;;;28.30;76.30;;;;;;5027270;28;20025;-85
2023/07/09 08:57:23;;;;;;;11.00;6.95;;;28.40;76.20;;;;;;5027434;28;20021;-83
2023/07/09 08:59:52;;;;;;;10.02;6.30;;;28.50;75.80;;;;;;5041967;28;20510;-84
2023/07/09 09:02:34;;;;;;;8.77;5.80;;;28.50;75.50;;;;;;5042639;28;20026;-84
2023/07/09 09:05:03;;;;;;;13.50;6.30;;;28.60;75.30;;;;;;5044766;28;20050;-83
2023/07/09 09:07:44;;;;;;;10.35;6.28;;;28.70;75.00;;;;;;5023205;28;20040;-86
2023/07/09 09:10:18;;;;;;;11.55;6.85;;;28.80;74.50;;;;;;5042410;28;20420;-86
2023/07/09 09:13:01;;;;;;;10.85;6.10;;;28.80;74.40;;;;;;5047140;28;20112;-85
2023/07/09 09:15:27;;;;;;;11.60;6.07;;;28.90;74.30;;;;;;5054215;28;20037;-86
2023/07/09 09:17:59;;;;;;;10.18;6.00;;;29.00;74.20;;;;;;5053403;28;20469;-84
2023/07/09 09:20:28;;;;;;;8.55;5.60;;;29.20;73.60;;;;;;5044537;28;20025;-87
2023/07/09 09:23:06;;;;;;;8.80;5.32;;;29.20;73.00;;;;;;5027702;28;20377;-86
2023/07/09 09:25:34;;;;;;;10.57;6.10;;;29.30;72.80;;;;;;5047342;28;20410;-84
2023/07/09 09:28:02;;;;;;;10.43;5.85;;;29.40;72.70;;;;;;5027672;28;20419;-86
2023/07/09 09:30:29;;;;;;;11.25;5.70;;;29.50;73.30;;;;;;5046552;28;20017;-84
2023/07/09 09:33:07;;;;;;;9.70;5.25;;;29.60;72.40;;;;;;5045190;28;20141;-85
2023/07/09 09:35:38;;;;;;;10.43;5.40;;;29.70;72.00;;;;;;5052064;28;20076;-84
2023/07/09 09:38:21;;;;;;;11.02;5.68;;;29.90;71.90;;;;;;5053980;28;20064;-84
2023/07/09 09:40:47;;;;;;;11.90;5.50;;;30.00;71.60;;;;;;5056105;28;20021;-85
2023/07/09 09:43:19;;;;;;;8.32;5.28;;;30.00;70.90;;;;;;5055906;28;20025;-84
2023/07/09 09:45:46;;;;;;;9.50;5.32;;;30.20;70.60;;;;;;5055375;28;20013;-85
2023/07/09 09:48:20;;;;;;;9.15;5.43;;;30.20;70.00;;;;;;5056344;28;20024;-84
2023/07/09 09:50:47;;;;;;;8.75;5.45;;;30.30;69.70;;;;;;5059099;28;20056;-83
2023/07/09 09:53:40;;;;;;;8.27;5.75;;;30.40;69.70;;;;;;5050405;28;20523;-83
2023/07/09 09:56:18;;;;;;;7.90;5.05;;;30.50;68.50;;;;;;5050293;28;20033;-82
2023/07/09 09:58:44;;;;;;;9.85;4.90;;;30.60;68.20;;;;;;5054196;28;20044;-83
2023/07/09 10:01:17;;;;;;;11.50;6.00;;;30.60;67.70;;;;;;5054359;28;20025;-81
2023/07/09 10:03:47;;;;;;;7.93;4.82;;;30.80;66.50;;;;;;5054208;28;20029;-82
2023/07/09 10:06:16;;;;;;;10.40;4.57;;;30.80;66.10;;;;;;5034220;28;20073;-82
2023/07/09 10:09:13;;;;;;;9.82;4.93;;;30.90;65.70;;;;;;5034186;28;20056;-82
2023/07/09 10:12:08;;;;;;;7.28;4.88;;;31.00;65.60;;;;;;5035461;28;20021;-81
2023/07/09 10:14:58;;;;;;;10.27;4.97;;;31.00;65.60;;;;;;5034217;28;20024;-82
2023/07/09 10:17:32;;;;;;;9.35;4.80;;;31.00;65.50;;;;;;5035294;28;20420;-81
2023/07/09 10:20:07;;;;;;;9.57;4.57;;;31.00;65.60;;;;;;5034072;28;20180;-81
2023/07/09 10:23:03;;;;;;;8.80;4.45;;;31.10;65.80;;;;;;5035429;28;20060;-80
2023/07/09 10:25:40;;;;;;;7.00;4.18;;;31.10;65.60;;;;;;5035144;28;20032;-82
2023/07/09 10:28:19;;;;;;;6.05;4.05;;;31.20;65.30;;;;;;5043880;28;20076;-82
2023/07/09 10:31:13;;;;;;;9.57;4.40;;;31.20;65.10;;;;;;5042747;28;20032;-82
2023/07/09 10:34:07;;;;;;;7.72;4.32;;;31.30;64.40;;;;;;5052407;28;20083;-81
2023/07/09 10:36:41;;;;;;;7.97;4.00;;;31.40;64.10;;;;;;5051228;28;20065;-81
2023/07/09 10:39:23;;;;;;;7.65;4.10;;;31.40;64.00;;;;;;5043317;28;20029;-83
2023/07/09 10:41:55;;;;;;;6.82;4.47;;;31.50;63.30;;;;;;5044017;28;20024;-82
2023/07/09 10:44:28;;;;;;;8.15;4.32;;;31.70;62.90;;;;;;5043871;28;20025;-82
2023/07/09 10:46:57;;;;;;;;;;;31.80;62.50;;;;;;5044674;28;20032;-81
2023/07/09 10:49:30;;;;;;;6.88;3.65;;;31.90;62.30;;;;;;5044525;28;19928;-81
2023/07/09 10:52:04;;;;;;;7.05;4.22;;;32.00;62.50;;;;;;5044360;28;20028;-83
2023/07/09 10:54:37;;;;;;;6.85;3.75;;;32.20;62.10;;;;;;5042023;28;20029;-80
2023/07/09 10:57:11;;;;;;;7.55;3.40;;;32.40;61.30;;;;;;5035031;28;20025;-82
2023/07/09 10:59:41;;;;;;;7.03;3.63;;;32.60;60.80;;;;;;5048489;28;20073;-82
2023/07/09 11:02:18;;;;;;;8.00;3.38;;;32.80;60.30;;;;;;5054620;28;20535;-81
2023/07/09 11:05:02;;;;;;;7.60;4.22;;;33.00;59.70;;;;;;5053188;28;20058;-82
2023/07/09 11:07:38;;;;;;;7.20;3.60;;;33.20;58.90;;;;;;5053158;28;20021;-82
2023/07/09 11:10:20;;;;;;;6.38;3.53;;;33.40;58.70;;;;;;5053006;28;20031;-81
2023/07/09 11:13:01;;;;;;;6.13;3.75;;;33.60;58.30;;;;;;5054287;28;20027;-81
2023/07/09 11:15:36;;;;;;;8.00;4.05;;;33.90;57.30;;;;;;5054545;28;20036;-81
2023/07/09 11:18:05;;;;;;;8.77;4.40;;;34.00;57.20;;;;;;5060358;28;20028;-82
2023/07/09 11:20:36;;;;;;;10.65;4.32;;;34.20;57.00;;;;;;5068426;28;20028;-82
2023/07/09 11:23:05;;;;;;;6.85;4.10;;;34.40;56.40;;;;;;5054035;28;20061;-82
2023/07/09 11:25:46;;;;;;;5.65;3.45;;;34.60;56.10;;;;;;5049575;28;20088;-81
2023/07/09 11:28:13;;;;;;;7.97;3.88;;;34.80;54.90;;;;;;5047855;28;20474;-81
2023/07/09 11:30:50;;;;;;;8.10;3.38;;;34.90;55.20;;;;;;5028946;28;20120;-83
2023/07/09 11:33:19;;;;;;;5.72;3.28;;;35.00;54.70;;;;;;5050002;28;20049;-81
2023/07/09 11:35:52;;;;;;;7.75;3.50;;;35.20;54.70;;;;;;5041096;28;20025;-80
2023/07/09 11:38:20;;;;;;;5.97;3.40;;;35.40;54.20;;;;;;5048484;28;20487;-80
2023/07/09 11:40:52;;;;;;;7.40;3.75;;;35.50;54.10;;;;;;5041261;28;20017;-81
2023/07/09 11:43:32;;;;;;;6.28;3.63;;;35.70;54.00;;;;;;5043928;28;20025;-81
2023/07/09 11:46:12;;;;;;;6.35;3.70;;;35.80;53.50;;;;;;5043101;28;20036;-82
2023/07/09 11:48:40;;;;;;;7.38;3.33;;;36.00;53.50;;;;;;5043708;28;20060;-82
2023/07/09 11:51:23;;;;;;;6.47;3.53;;;36.20;53.30;;;;;;5051497;28;20017;-81
2023/07/09 11:53:53;;;;;;;5.50;3.58;;;36.30;52.20;;;;;;5053491;28;20025;-82
2023/07/09 11:56:25;;;;;;;6.60;3.63;;;36.50;52.30;;;;;;5035669;28;20025;-82
2023/07/09 11:58:57;;;;;;;5.80;3.42;;;36.50;52.10;;;;;;5051499;28;20044;-82
2023/07/09 12:01:34;;;;;;;8.27;3.47;;;36.60;52.20;;;;;;5031974;28;20033;-82
2023/07/09 12:04:00;;;;;;;7.55;3.33;;;36.70;51.90;;;;;;5048891;28;20047;-82
2023/07/09 12:06:32;;;;;;;5.53;2.97;;;36.80;51.70;;;;;;5034969;28;20525;-82
2023/07/09 12:08:57;;;;;;;7.75;3.45;;;36.70;50.80;;;;;;5044453;28;20095;-82
2023/07/09 12:11:31;;;;;;;6.97;3.83;;;36.80;50.90;;;;;;5035838;28;20450;-81
2023/07/09 12:14:06;;;;;;;8.65;3.28;;;36.70;50.80;;;;;;5039820;28;20021;-81
2023/07/09 12:16:37;;;;;;;5.43;3.15;;;36.80;50.40;;;;;;5036191;28;20029;-81
2023/07/09 12:19:03;;;;;;;6.27;3.30;;;36.80;50.70;;;;;;5050765;28;20029;-81
2023/07/09 12:21:32;;;;;;;7.60;3.22;;;36.70;51.70;;;;;;5051794;28;20029;-81
2023/07/09 12:23:58;;;;;;;7.20;3.47;;;36.60;51.50;;;;;;5051771;28;20090;-81
2023/07/09 12:26:23;;;;;;;10.93;3.92;;;36.50;51.90;;;;;;5048283;28;20108;-81
2023/07/09 12:28:54;;;;;;;7.00;4.03;;;36.40;52.30;;;;;;5041117;28;20036;-81
2023/07/09 12:31:26;;;;;;;5.28;3.33;;;36.30;52.30;;;;;;5043172;28;20047;-81
2023/07/09 12:33:58;;;;;;;6.47;3.40;;;36.10;52.60;;;;;;5049218;28;20543;-81
2023/07/09 12:36:25;;;;;;;7.97;3.40;;;36.00;52.80;;;;;;5031874;28;20481;-81
2023/07/09 12:38:55;;;;;;;5.00;3.33;;;35.80;52.80;;;;;;5052596;28;20354;-80
2023/07/09 12:41:40;;;;;;;5.75;3.03;;;35.70;52.90;;;;;;5071762;28;20021;-80
2023/07/09 12:44:15;;;;;;;4.80;3.00;;;35.50;53.10;;;;;;5073033;28;20013;-81
2023/07/09 12:46:40;;;;;;;4.93;2.90;;;35.30;53.10;;;;;;5071805;28;20159;-81
2023/07/09 12:49:06;;;;;;;7.55;3.45;;;35.30;52.60;;;;;;5075445;28;20044;-81